Aeroporto :
LOGIN :

Iscrizione | Disclaimer

   EN    FR    IT 

 










Sommario :    VFR   VFR Marginale   IFR   IFR Intensivo   IFR Molto Intensivo
Visibilità : 
Base nubi : 
>= 8 km
>= 3000ft
5 / 8 km
1000 / 3000 ft
1500m / 5 km
500 / 1000 ft
800 / 1500m
200 / 500 ft
< 800m
< 200 ft
Simboli :   Temporali  Nebbia  Neve Forte  Precipitazioni Forti  Vento > 20 kt
SIGMETs :   Varie  Temporali  Ghiacco  Turbolenza  Onda orograficha  Ceneri Vulcaniche






- Altitudine del aeroporto : 32 ft
- Codice IATA : LKZ


EGUL - RAF Lakenheath

ULTIMO METAR :
  • 250456Z AUTO 24005KT 9999 OVC019 06/05 A3007 RMK AO2 SLP186 T00600048 $

METARs OBSOLETI :
  • 250356Z AUTO 24006KT 9999 OVC021 06/05 A3008 RMK AO2 SLP190 T00610052 $
  • 250256Z AUTO 22005KT 9999 OVC022 06/06 A3009 RMK AO2 SLP193 T00620056 57010 $

TAF TAF EGUL
Valido dal 24 a 18 ore il 25 a 19 ore UTC


241819Z 2418/2519 VRB03KT 9999 OVC020 QNH3017INS
TEMPO 2422/2506 6000 BR BKN009
TEMPO 2506/2508 BKN005
BECMG 2508/2509 20012KT 9999 NSW OVC020 QNH2998INS TX08/2514Z TN05/2506Z LAST NO AMDS AFT 2418 NEXT 2705



MetMap, La meteo Aeronautica in un colpo d'occhio ! - Copyright ORBIFLY Dicembre 2007 - Disclaimer

ORBIFLY MET'MAP TEAM :

Programmazione e sviluppo : Alexandra Zaïnal
Concezione : Baudouin d'Aumeries
Aiuto per la programmazione : Marc-Olivier Méhu
Supporto tecnico e logistico : Manuel Goepfert
Aiuto per la traduzione : Arnaldo La Scala

Contatto : metmap@orbifly.com




FONTI E CREDITI :

   NOAA